Aérodrome :
LOGIN :

S'inscrire | Disclaimer

   EN    FR    IT 

 










Légende :    VFR   VFR Marginal   IFR   IFR Intensif   IFR Très Intensif
Visi : 
Plafond : 
>= 8 km
>= 3000ft
5 à 8 km
1000 à 3000 ft
1500m à 5 km
500 à 1000 ft
800 à 1500m
200 à 500 ft
< 800m
< 200 ft
Symboles :   Orages  Brouillard  Fortes neiges  Fortes précipitations  Vent > 20 kt
SIGMETs :   Divers  Orages  Givrage  Turbulence  Onde Orograph.  Cendres Volcan.






- Altitude de l'aérodrome : 353 ft
- Code IATA : LIN


LIML - Milano Linate

DERNIER METAR :
  • 130750Z VRB02KT 9999 FEW010 BKN045 25/22 Q1010 NOSIG

METARs EXPIRÉS :
  • 130720Z VRB02KT 9999 FEW010 SCT030 25/21 Q1010 NOSIG
  • 130650Z VRB02KT 9999 SCT030 25/21 Q1010 NOSIG
  • 130620Z 12003KT 070V170 9999 BKN040 23/21 Q1010 NOSIG
  • 130550Z VRB01KT 9999 BKN050 24/21 Q1010 NOSIG
  • 130520Z VRB02KT 9999 BKN050 23/21 Q1009 NOSIG
  • 130450Z 34003KT 9999 BKN050 22/20 Q1009 NOSIG
  • 130420Z 35002KT 9999 SCT050 22/21 Q1009 NOSIG
  • 130350Z 33002KT 9999 FEW040 21/20 Q1009 NOSIG
  • 130320Z VRB01KT 9999 SCT040 21/20 Q1009 NOSIG

TAF TAF LIML
Valide du 13 à 06h jusqu'au 14 à 06h UTC


130500Z 1306/1406 VRB05KT 9999 SCT050



MET'MAP, la Météo Aéronautique d'un coup d'oeil ! - Copyright ORBIFLY Décembre 2007 - Disclaimer

ORBIFLY MET'MAP TEAM :

Programmation & Développement : Alexandra Zaïnal
Sur une idée originale de : Baudouin d'Aumeries
Soutien technique & logistique : Manuel Goepfert
Assistance : Marc-Olivier Méhu




SOURCES & CREDITS :

   NOAA